createdAt,value
2019-03-12T12:56:22.407Z,2.50
2019-03-12T12:58:50.874Z,3.03
2019-03-12T13:01:19.360Z,3.20
2019-03-12T13:03:47.834Z,4.20
2019-03-12T13:06:16.395Z,4.10
2019-03-12T13:08:44.862Z,3.47
2019-03-12T13:11:13.327Z,3.50
2019-03-12T13:13:41.903Z,3.37
2019-03-12T13:16:10.524Z,3.10
2019-03-12T13:18:39.091Z,3.10
2019-03-12T13:21:07.559Z,3.60
2019-03-12T13:23:36.374Z,3.50
2019-03-12T13:26:04.968Z,3.80
2019-03-12T13:28:33.468Z,3.93
2019-03-12T13:31:02.002Z,3.60
2019-03-12T13:33:30.541Z,3.60
2019-03-12T13:35:58.979Z,3.77
2019-03-12T13:38:27.743Z,3.60
2019-03-12T13:40:56.781Z,3.80
2019-03-12T13:43:25.274Z,4.93
2019-03-12T13:45:53.737Z,3.93
2019-03-12T13:48:22.275Z,4.17
2019-03-12T13:50:50.885Z,4.27
2019-03-12T13:53:19.485Z,4.10
2019-03-12T13:55:47.973Z,4.10
2019-03-12T13:58:16.517Z,4.27
2019-03-12T14:00:45.249Z,4.27
2019-03-12T14:03:13.714Z,4.27
2019-03-12T14:05:42.203Z,4.77
2019-03-12T14:08:10.673Z,4.63
2019-03-12T14:10:39.170Z,4.57
2019-03-12T14:13:07.715Z,4.50
2019-03-12T14:15:38.522Z,4.93
2019-03-12T14:18:08.165Z,4.50
2019-03-12T14:20:47.957Z,4.63
2019-03-12T14:23:28.023Z,4.77
2019-03-12T14:25:57.052Z,4.27
2019-03-12T14:28:25.696Z,4.67
2019-03-12T14:30:54.265Z,4.60
2019-03-12T14:33:22.826Z,4.17
2019-03-12T14:35:52.385Z,4.20
2019-03-12T14:38:21.046Z,3.90
2019-03-12T14:40:49.625Z,4.20
2019-03-12T14:43:18.160Z,3.50
2019-03-12T14:45:51.535Z,3.43
2019-03-12T14:48:40.054Z,3.07
2019-03-12T14:51:26.376Z,2.77
2019-03-12T14:53:57.620Z,3.07
2019-03-12T14:56:28.244Z,3.27
2019-03-12T14:58:56.883Z,2.70
2019-03-12T15:01:25.446Z,2.67
2019-03-12T15:03:54.260Z,2.80
2019-03-12T15:06:22.834Z,2.60
2019-03-12T15:08:51.304Z,2.53
2019-03-12T15:11:19.800Z,2.80
2019-03-12T15:13:48.266Z,2.93
2019-03-12T15:16:16.758Z,2.97
2019-03-12T15:18:45.466Z,3.00
2019-03-12T15:21:14.128Z,3.27
2019-03-12T15:23:42.600Z,3.60
2019-03-12T15:26:11.107Z,3.00
2019-03-12T15:28:39.598Z,3.53
2019-03-12T15:31:08.070Z,3.60
2019-03-12T15:33:37.642Z,3.10
2019-03-12T15:36:06.111Z,3.00
2019-03-12T15:38:34.604Z,3.13
2019-03-12T15:41:03.068Z,3.10
2019-03-12T15:43:31.558Z,3.43
2019-03-12T15:46:00.019Z,3.10
2019-03-12T15:48:28.510Z,3.53
2019-03-12T15:50:56.983Z,4.00
2019-03-12T15:53:25.466Z,4.97
2019-03-12T15:55:55.866Z,4.27
2019-03-12T15:58:24.152Z,3.53
2019-03-12T16:00:52.691Z,3.37
2019-03-12T16:03:21.180Z,3.20
2019-03-12T16:05:49.644Z,3.53
2019-03-12T16:08:18.143Z,3.20
2019-03-12T16:10:57.186Z,3.30
2019-03-12T16:13:16.825Z,3.10
2019-03-12T16:15:45.288Z,3.20
2019-03-12T16:18:14.722Z,3.50
2019-03-12T16:20:43.431Z,2.87
2019-03-12T16:23:11.928Z,3.13
2019-03-12T16:25:40.399Z,3.60
2019-03-12T16:28:08.960Z,3.27
2019-03-12T16:30:37.426Z,3.63
2019-03-12T16:33:05.922Z,3.50
2019-03-12T16:35:34.392Z,3.27
2019-03-12T16:38:02.902Z,3.47
2019-03-12T16:40:31.357Z,3.40
2019-03-12T16:42:59.859Z,3.20
2019-03-12T16:45:28.319Z,3.50
2019-03-12T16:47:56.811Z,3.53
2019-03-12T16:50:25.346Z,3.30
2019-03-12T16:52:53.834Z,3.10
2019-03-12T16:55:22.298Z,3.80
2019-03-12T16:57:50.794Z,3.33
2019-03-12T17:00:20.809Z,4.43
2019-03-12T17:02:49.271Z,3.97
2019-03-12T17:05:17.766Z,5.20
2019-03-12T17:07:46.240Z,6.60
2019-03-12T17:10:20.810Z,3.97
2019-03-12T17:12:49.278Z,7.40
2019-03-12T17:15:26.171Z,3.97
2019-03-12T17:17:54.692Z,4.40
2019-03-12T17:20:23.347Z,4.17
2019-03-12T17:22:51.901Z,4.67
2019-03-12T17:25:20.489Z,3.97
2019-03-12T17:27:51.387Z,3.80
2019-03-12T17:30:25.632Z,3.87
2019-03-12T17:32:54.099Z,3.73
2019-03-12T17:35:28.562Z,3.60
2019-03-12T17:37:57.027Z,3.67
2019-03-12T17:40:25.520Z,4.00
2019-03-12T17:42:53.992Z,4.27
2019-03-12T17:45:22.484Z,3.63
2019-03-12T17:47:50.939Z,4.30
2019-03-12T17:50:19.499Z,4.27
2019-03-12T17:52:47.959Z,3.53
2019-03-12T17:55:16.592Z,3.40
2019-03-12T17:57:45.060Z,3.27
2019-03-12T18:00:35.517Z,4.40
2019-03-12T18:03:04.058Z,3.47
2019-03-12T18:05:32.552Z,3.30
2019-03-12T18:08:01.024Z,3.20
2019-03-12T18:10:29.508Z,3.20
2019-03-12T18:12:58.043Z,3.70
2019-03-12T18:15:26.530Z,3.20
2019-03-12T18:17:55.009Z,3.23
2019-03-12T18:20:24.357Z,3.53
2019-03-12T18:22:52.897Z,3.43
2019-03-12T18:25:32.640Z,3.90
2019-03-12T18:28:01.118Z,3.43
2019-03-12T18:30:29.775Z,4.50
2019-03-12T18:32:58.244Z,3.90
2019-03-12T18:35:26.907Z,3.50
2019-03-12T18:37:55.389Z,4.20
2019-03-12T18:40:27.822Z,4.27
2019-03-12T18:42:56.609Z,4.57
2019-03-12T18:45:30.290Z,4.80
2019-03-12T18:47:58.762Z,3.77
2019-03-12T18:50:27.243Z,3.80
2019-03-12T18:52:55.892Z,3.90
2019-03-12T18:55:33.176Z,3.53
2019-03-12T18:58:05.974Z,3.60
2019-03-12T19:00:35.333Z,3.47
2019-03-12T19:03:03.887Z,3.53
2019-03-12T19:05:32.383Z,3.57
2019-03-12T19:08:00.923Z,3.10
2019-03-12T19:10:29.406Z,3.67
2019-03-12T19:12:57.871Z,3.73
2019-03-12T19:15:26.433Z,3.70
2019-03-12T19:17:54.891Z,3.43
2019-03-12T19:20:23.456Z,3.30
2019-03-12T19:22:51.922Z,3.70
2019-03-12T19:25:32.567Z,3.47
2019-03-12T19:28:01.039Z,3.60
2019-03-12T19:30:29.597Z,3.77
2019-03-12T19:33:02.118Z,3.73
2019-03-12T19:35:31.643Z,3.70
2019-03-12T19:38:01.357Z,3.70
2019-03-12T19:40:49.717Z,3.60
2019-03-12T19:43:18.253Z,3.47
2019-03-12T19:45:46.746Z,3.30
2019-03-12T19:48:15.277Z,3.80
2019-03-12T19:50:43.770Z,3.20
2019-03-12T19:53:12.250Z,3.33
2019-03-12T19:55:45.926Z,3.83
2019-03-12T19:58:14.473Z,3.60
2019-03-12T20:00:43.897Z,3.63
2019-03-12T20:03:15.315Z,3.83
2019-03-12T20:05:42.821Z,3.57
2019-03-12T20:08:11.294Z,3.93
2019-03-12T20:11:05.259Z,3.60
2019-03-12T20:13:56.212Z,3.60
2019-03-12T20:16:39.838Z,3.30
2019-03-12T20:19:29.255Z,3.73
2019-03-12T20:22:19.958Z,3.43
2019-03-12T20:25:11.261Z,3.90
2019-03-12T20:28:05.462Z,3.53
2019-03-12T20:30:48.843Z,3.40
2019-03-12T20:33:55.376Z,3.57
2019-03-12T20:37:00.449Z,3.80
2019-03-12T20:39:56.237Z,3.80
2019-03-12T20:43:00.763Z,3.10
2019-03-12T20:45:48.842Z,3.73
2019-03-12T20:48:25.609Z,3.60
2019-03-12T20:51:19.961Z,3.23
2019-03-12T20:54:00.081Z,3.50
2019-03-12T20:57:06.809Z,3.20
2019-03-12T21:00:03.638Z,3.30
2019-03-12T21:02:40.946Z,3.40
2019-03-12T21:05:44.123Z,3.70
2019-03-12T21:08:41.616Z,4.20
2019-03-12T21:11:41.994Z,2.90
2019-03-12T21:14:33.188Z,3.10
2019-03-12T21:17:27.237Z,3.30
2019-03-12T21:20:18.605Z,3.30
2019-03-12T21:23:11.339Z,3.63
2019-03-12T21:25:51.877Z,3.90
2019-03-12T21:28:38.249Z,3.33
2019-03-12T21:31:06.819Z,3.30
2019-03-12T21:33:35.281Z,3.87
2019-03-12T21:36:03.934Z,3.57
2019-03-12T21:38:32.543Z,3.87
2019-03-12T21:41:01.480Z,3.80
2019-03-12T21:43:30.408Z,4.17
2019-03-12T21:45:59.299Z,4.30
2019-03-12T21:48:28.086Z,3.90
2019-03-12T21:50:56.620Z,3.77
2019-03-12T21:53:25.165Z,3.57
2019-03-12T21:55:53.720Z,4.40
2019-03-12T21:58:22.331Z,3.90
2019-03-12T22:00:51.212Z,3.90
2019-03-12T22:03:20.106Z,4.10
2019-03-12T22:05:48.895Z,4.57
2019-03-12T22:08:17.584Z,5.23
2019-03-12T22:10:46.056Z,4.60
2019-03-12T22:13:14.629Z,4.33
2019-03-12T22:15:43.107Z,4.63
2019-03-12T22:18:11.612Z,4.90
2019-03-12T22:20:40.250Z,4.70
2019-03-12T22:23:16.091Z,4.50
2019-03-12T22:25:44.569Z,4.50
2019-03-12T22:28:13.062Z,4.37
2019-03-12T22:30:41.903Z,5.20
2019-03-12T22:33:10.392Z,4.40
2019-03-12T22:35:38.864Z,4.30
2019-03-12T22:38:07.364Z,4.20
2019-03-12T22:40:35.837Z,4.27
2019-03-12T22:43:04.393Z,4.60
2019-03-12T22:45:32.862Z,3.90
2019-03-12T22:48:01.366Z,4.47
2019-03-12T22:50:29.826Z,4.27
2019-03-12T22:52:58.313Z,4.43
2019-03-12T22:55:26.783Z,4.20
2019-03-12T22:57:55.276Z,4.33
2019-03-12T23:00:23.915Z,4.50
2019-03-12T23:02:52.418Z,4.87
2019-03-12T23:05:20.882Z,4.30
2019-03-12T23:07:49.382Z,4.20
2019-03-12T23:10:18.578Z,4.40
2019-03-12T23:12:47.231Z,4.77
2019-03-12T23:15:19.548Z,4.53
2019-03-12T23:17:48.277Z,4.03
2019-03-12T23:20:19.324Z,3.67
2019-03-12T23:22:47.980Z,4.10
2019-03-12T23:25:16.441Z,4.03
2019-03-12T23:27:45.005Z,3.90
2019-03-12T23:30:15.611Z,4.07
2019-03-12T23:32:44.176Z,3.67
2019-03-12T23:35:12.809Z,3.70
2019-03-12T23:37:41.545Z,3.60
2019-03-12T23:40:15.261Z,3.70
2019-03-12T23:42:43.751Z,3.40
2019-03-12T23:45:14.205Z,3.87
2019-03-12T23:47:42.764Z,3.33
2019-03-12T23:50:14.353Z,3.43
2019-03-12T23:52:43.160Z,3.70
2019-03-12T23:55:13.756Z,3.63
2019-03-12T23:57:42.274Z,3.70
